sensor_id;sensor_type;location;lat;lon;timestamp;pressure;altitude;pressure_sealevel;temperature;humidity
3132;BME280;62090;52.330;9.104;2024-01-15T00:00:51;99211.75;;;2.03;100.00
3132;BME280;62090;52.330;9.104;2024-01-15T00:03:21;99291.00;;;2.44;100.00
3132;BME280;62090;52.330;9.104;2024-01-15T00:05:51;99297.97;;;2.51;100.00
3132;BME280;62090;52.330;9.104;2024-01-15T00:08:24;99302.13;;;2.50;100.00
3132;BME280;62090;52.330;9.104;2024-01-15T00:10:54;99271.38;;;2.32;100.00
3132;BME280;62090;52.330;9.104;2024-01-15T00:13:24;99280.59;;;2.33;100.00
3132;BME280;62090;52.330;9.104;2024-01-15T00:15:54;99212.97;;;1.89;100.00
3132;BME280;62090;52.330;9.104;2024-01-15T00:18:24;99255.25;;;2.26;100.00
3132;BME280;62090;52.330;9.104;2024-01-15T00:20:55;99245.03;;;2.21;100.00
3132;BME280;62090;52.330;9.104;2024-01-15T00:23:27;99273.19;;;2.36;100.00
3132;BME280;62090;52.330;9.104;2024-01-15T00:25:58;99233.88;;;2.13;100.00
3132;BME280;62090;52.330;9.104;2024-01-15T00:28:28;99273.53;;;2.47;100.00
3132;BME280;62090;52.330;9.104;2024-01-15T00:30:58;99231.56;;;2.19;100.00
3132;BME280;62090;52.330;9.104;2024-01-15T00:33:28;99165.47;;;1.95;100.00
3132;BME280;62090;52.330;9.104;2024-01-15T00:35:58;99239.72;;;2.37;100.00
3132;BME280;62090;52.330;9.104;2024-01-15T00:38:31;99251.78;;;2.47;100.00
3132;BME280;62090;52.330;9.104;2024-01-15T00:41:01;99228.53;;;2.29;100.00
3132;BME280;62090;52.330;9.104;2024-01-15T00:43:31;99255.28;;;2.52;100.00
3132;BME280;62090;52.330;9.104;2024-01-15T00:46:02;99253.47;;;2.48;100.00
3132;BME280;62090;52.330;9.104;2024-01-15T00:48:32;99245.22;;;2.52;100.00
3132;BME280;62090;52.330;9.104;2024-01-15T00:51:03;99247.59;;;2.48;100.00
3132;BME280;62090;52.330;9.104;2024-01-15T00:53:36;99239.22;;;2.49;100.00
3132;BME280;62090;52.330;9.104;2024-01-15T00:56:06;99210.88;;;2.26;100.00
3132;BME280;62090;52.330;9.104;2024-01-15T00:58:36;99159.66;;;1.97;100.00
3132;BME280;62090;52.330;9.104;2024-01-15T01:01:07;99232.75;;;2.55;100.00
3132;BME280;62090;52.330;9.104;2024-01-15T01:03:37;99229.38;;;2.55;100.00
3132;BME280;62090;52.330;9.104;2024-01-15T01:06:07;99211.34;;;2.41;100.00
3132;BME280;62090;52.330;9.104;2024-01-15T01:08:40;99232.13;;;2.63;100.00
3132;BME280;62090;52.330;9.104;2024-01-15T01:11:13;99242.13;;;2.61;100.00
3132;BME280;62090;52.330;9.104;2024-01-15T01:13:43;99233.75;;;2.61;100.00
3132;BME280;62090;52.330;9.104;2024-01-15T01:16:13;99225.34;;;2.60;100.00
3132;BME280;62090;52.330;9.104;2024-01-15T01:18:44;99228.44;;;2.51;100.00
3132;BME280;62090;52.330;9.104;2024-01-15T01:21:15;99215.84;;;2.51;100.00
3132;BME280;62090;52.330;9.104;2024-01-15T01:23:47;99207.19;;;2.42;100.00
3132;BME280;62090;52.330;9.104;2024-01-15T01:26:18;99181.66;;;2.30;100.00
3132;BME280;62090;52.330;9.104;2024-01-15T01:28:48;99224.97;;;2.48;100.00
3132;BME280;62090;52.330;9.104;2024-01-15T01:31:18;99224.34;;;2.55;100.00
3132;BME280;62090;52.330;9.104;2024-01-15T01:33:48;99201.34;;;2.43;100.00
3132;BME280;62090;52.330;9.104;2024-01-15T01:36:18;99225.06;;;2.51;100.00
3132;BME280;62090;52.330;9.104;2024-01-15T01:38:51;99214.94;;;2.49;100.00
3132;BME280;62090;52.330;9.104;2024-01-15T01:41:21;99208.91;;;2.43;100.00
3132;BME280;62090;52.330;9.104;2024-01-15T01:43:51;99130.56;;;2.04;100.00
3132;BME280;62090;52.330;9.104;2024-01-15T01:46:22;99172.06;;;2.18;100.00
3132;BME280;62090;52.330;9.104;2024-01-15T01:48:53;99205.56;;;2.44;100.00
3132;BME280;62090;52.330;9.104;2024-01-15T01:51:25;99187.72;;;2.36;100.00
3132;BME280;62090;52.330;9.104;2024-01-15T01:53:57;99210.84;;;2.51;100.00
3132;BME280;62090;52.330;9.104;2024-01-15T01:56:27;99129.22;;;2.13;100.00
3132;BME280;62090;52.330;9.104;2024-01-15T01:58:58;99196.09;;;2.62;100.00
3132;BME280;62090;52.330;9.104;2024-01-15T02:01:28;99183.25;;;2.53;100.00
3132;BME280;62090;52.330;9.104;2024-01-15T02:04:00;99186.09;;;2.65;100.00
3132;BME280;62090;52.330;9.104;2024-01-15T02:06:30;99119.28;;;2.17;100.00
3132;BME280;62090;52.330;9.104;2024-01-15T02:09:03;99157.66;;;2.39;100.00
3132;BME280;62090;52.330;9.104;2024-01-15T02:11:34;99168.56;;;2.40;100.00
3132;BME280;62090;52.330;9.104;2024-01-15T02:14:04;99196.03;;;2.61;100.00
3132;BME280;62090;52.330;9.104;2024-01-15T02:16:34;99182.59;;;2.60;100.00
3132;BME280;62090;52.330;9.104;2024-01-15T02:19:04;99188.75;;;2.70;100.00
3132;BME280;62090;52.330;9.104;2024-01-15T02:21:35;99185.25;;;2.65;100.00
3132;BME280;62090;52.330;9.104;2024-01-15T02:24:08;99134.75;;;2.30;100.00
3132;BME280;62090;52.330;9.104;2024-01-15T02:26:38;99195.28;;;2.63;100.00
3132;BME280;62090;52.330;9.104;2024-01-15T02:29:08;99199.31;;;2.58;100.00
3132;BME280;62090;52.330;9.104;2024-01-15T02:31:39;99159.38;;;2.40;100.00
3132;BME280;62090;52.330;9.104;2024-01-15T02:34:09;99175.91;;;2.61;100.00
3132;BME280;62090;52.330;9.104;2024-01-15T02:36:39;99174.91;;;2.55;100.00
3132;BME280;62090;52.330;9.104;2024-01-15T02:39:12;99180.34;;;2.68;100.00
3132;BME280;62090;52.330;9.104;2024-01-15T02:41:42;99192.13;;;2.70;100.00
3132;BME280;62090;52.330;9.104;2024-01-15T02:44:12;99139.34;;;2.43;100.00
3132;BME280;62090;52.330;9.104;2024-01-15T02:46:42;99187.34;;;2.78;100.00
3132;BME280;62090;52.330;9.104;2024-01-15T02:49:12;99179.81;;;2.78;100.00
3132;BME280;62090;52.330;9.104;2024-01-15T02:51:43;99185.63;;;2.77;100.00
3132;BME280;62090;52.330;9.104;2024-01-15T02:54:16;99181.66;;;2.83;100.00
3132;BME280;62090;52.330;9.104;2024-01-15T02:56:46;99163.53;;;2.67;100.00
3132;BME280;62090;52.330;9.104;2024-01-15T02:59:16;99169.59;;;2.73;100.00
3132;BME280;62090;52.330;9.104;2024-01-15T03:01:46;99162.19;;;2.78;100.00
3132;BME280;62090;52.330;9.104;2024-01-15T03:04:17;99179.19;;;2.85;100.00
3132;BME280;62090;52.330;9.104;2024-01-15T03:06:47;99157.03;;;2.73;100.00
3132;BME280;62090;52.330;9.104;2024-01-15T03:09:20;99161.94;;;2.69;100.00
3132;BME280;62090;52.330;9.104;2024-01-15T03:11:50;99172.06;;;2.72;100.00
3132;BME280;62090;52.330;9.104;2024-01-15T03:14:20;99176.75;;;2.88;100.00
3132;BME280;62090;52.330;9.104;2024-01-15T03:16:52;99154.53;;;2.73;100.00
3132;BME280;62090;52.330;9.104;2024-01-15T03:19:22;99188.72;;;2.96;100.00
3132;BME280;62090;52.330;9.104;2024-01-15T03:21:53;99186.38;;;3.01;100.00
3132;BME280;62090;52.330;9.104;2024-01-15T03:24:25;99192.09;;;2.97;100.00
3132;BME280;62090;52.330;9.104;2024-01-15T03:26:56;99199.66;;;2.97;100.00
3132;BME280;62090;52.330;9.104;2024-01-15T03:29:26;99159.00;;;2.83;100.00
3132;BME280;62090;52.330;9.104;2024-01-15T03:31:56;99152.13;;;2.78;100.00
3132;BME280;62090;52.330;9.104;2024-01-15T03:34:26;99178.53;;;2.92;100.00
3132;BME280;62090;52.330;9.104;2024-01-15T03:36:57;99187.00;;;2.94;100.00
3132;BME280;62090;52.330;9.104;2024-01-15T03:39:29;99159.72;;;2.79;100.00
3132;BME280;62090;52.330;9.104;2024-01-15T03:42:00;99128.16;;;2.61;100.00
3132;BME280;62090;52.330;9.104;2024-01-15T03:44:30;99179.34;;;2.91;100.00
3132;BME280;62090;52.330;9.104;2024-01-15T03:47:00;99181.06;;;2.92;100.00
3132;BME280;62090;52.330;9.104;2024-01-15T03:49:30;99151.94;;;2.72;100.00
3132;BME280;62090;52.330;9.104;2024-01-15T03:52:00;99151.94;;;2.72;100.00
3132;BME280;62090;52.330;9.104;2024-01-15T03:54:33;99203.88;;;2.98;100.00
3132;BME280;62090;52.330;9.104;2024-01-15T03:57:05;99185.00;;;2.84;100.00
3132;BME280;62090;52.330;9.104;2024-01-15T03:59:35;99182.50;;;2.84;100.00
3132;BME280;62090;52.330;9.104;2024-01-15T04:02:05;99205.31;;;2.90;100.00
3132;BME280;62090;52.330;9.104;2024-01-15T04:04:35;99134.56;;;2.51;100.00
3132;BME280;62090;52.330;9.104;2024-01-15T04:07:06;99186.81;;;2.88;100.00
3132;BME280;62090;52.330;9.104;2024-01-15T04:09:38;99203.69;;;2.92;100.00
3132;BME280;62090;52.330;9.104;2024-01-15T04:12:09;99192.16;;;2.98;100.00
3132;BME280;62090;52.330;9.104;2024-01-15T04:14:39;99168.94;;;2.79;100.00
3132;BME280;62090;52.330;9.104;2024-01-15T04:17:09;99162.91;;;2.74;100.00
3132;BME280;62090;52.330;9.104;2024-01-15T04:19:39;99186.94;;;2.92;100.00
3132;BME280;62090;52.330;9.104;2024-01-15T04:22:11;99194.47;;;2.92;100.00
3132;BME280;62090;52.330;9.104;2024-01-15T04:24:44;99197.00;;;2.92;100.00
3132;BME280;62090;52.330;9.104;2024-01-15T04:27:14;99197.78;;;2.90;100.00
3132;BME280;62090;52.330;9.104;2024-01-15T04:29:44;99199.56;;;2.94;100.00
3132;BME280;62090;52.330;9.104;2024-01-15T04:32:15;99189.59;;;2.97;100.00
3132;BME280;62090;52.330;9.104;2024-01-15T04:34:46;99176.69;;;2.86;100.00
3132;BME280;62090;52.330;9.104;2024-01-15T04:37:16;99166.75;;;2.89;100.00
3132;BME280;62090;52.330;9.104;2024-01-15T04:39:49;99177.28;;;3.06;100.00
3132;BME280;62090;52.330;9.104;2024-01-15T04:42:20;99187.19;;;3.00;100.00
3132;BME280;62090;52.330;9.104;2024-01-15T04:44:50;99166.13;;;2.98;100.00
3132;BME280;62090;52.330;9.104;2024-01-15T04:47:20;99183.97;;;3.06;100.00
3132;BME280;62090;52.330;9.104;2024-01-15T04:49:50;99155.03;;;2.90;100.00
3132;BME280;62090;52.330;9.104;2024-01-15T04:52:20;99183.06;;;3.04;100.00
3132;BME280;62090;52.330;9.104;2024-01-15T04:54:53;99194.06;;;3.06;100.00
3132;BME280;62090;52.330;9.104;2024-01-15T04:57:23;99160.94;;;2.92;100.00
3132;BME280;62090;52.330;9.104;2024-01-15T04:59:54;99168.47;;;2.92;100.00
3132;BME280;62090;52.330;9.104;2024-01-15T05:02:24;99178.66;;;2.96;100.00
3132;BME280;62090;52.330;9.104;2024-01-15T05:04:54;99169.38;;;2.94;100.00
3132;BME280;62090;52.330;9.104;2024-01-15T05:07:24;99164.44;;;2.97;100.00
3132;BME280;62090;52.330;9.104;2024-01-15T05:09:57;99173.69;;;2.98;100.00
3132;BME280;62090;52.330;9.104;2024-01-15T05:12:27;99173.63;;;2.96;100.00
3132;BME280;62090;52.330;9.104;2024-01-15T05:14:57;99188.59;;;2.92;100.00
3132;BME280;62090;52.330;9.104;2024-01-15T05:17:27;99175.41;;;2.99;100.00
3132;BME280;62090;52.330;9.104;2024-01-15T05:19:58;99185.91;;;2.86;100.00
3132;BME280;62090;52.330;9.104;2024-01-15T05:22:28;99174.38;;;2.66;100.00
3132;BME280;62090;52.330;9.104;2024-01-15T05:25:01;99161.41;;;2.52;100.00
3132;BME280;62090;52.330;9.104;2024-01-15T05:27:31;99081.06;;;2.00;100.00
3132;BME280;62090;52.330;9.104;2024-01-15T05:30:01;99168.84;;;2.49;100.00
3132;BME280;62090;52.330;9.104;2024-01-15T05:32:31;99165.66;;;2.54;100.00
3132;BME280;62090;52.330;9.104;2024-01-15T05:35:02;99173.50;;;2.64;100.00
3132;BME280;62090;52.330;9.104;2024-01-15T05:37:32;99128.28;;;2.37;100.00
3132;BME280;62090;52.330;9.104;2024-01-15T05:40:05;99170.34;;;2.71;100.00
3132;BME280;62090;52.330;9.104;2024-01-15T05:42:36;99150.78;;;2.61;100.00
3132;BME280;62090;52.330;9.104;2024-01-15T05:45:07;99119.34;;;2.46;100.00
3132;BME280;62090;52.330;9.104;2024-01-15T05:47:37;99172.19;;;2.75;100.00
3132;BME280;62090;52.330;9.104;2024-01-15T05:50:08;99169.78;;;2.79;100.00
3132;BME280;62090;52.330;9.104;2024-01-15T05:52:38;99157.84;;;2.72;100.00
3132;BME280;62090;52.330;9.104;2024-01-15T05:55:11;99160.66;;;2.83;100.00
3132;BME280;62090;52.330;9.104;2024-01-15T05:57:41;99111.53;;;2.66;100.00
3132;BME280;62090;52.330;9.104;2024-01-15T06:00:12;99152.31;;;2.84;100.00
3132;BME280;62090;52.330;9.104;2024-01-15T06:02:43;99145.50;;;2.80;100.00
3132;BME280;62090;52.330;9.104;2024-01-15T06:05:13;99160.00;;;2.88;100.00
3132;BME280;62090;52.330;9.104;2024-01-15T06:07:43;99154.19;;;2.91;100.00
3132;BME280;62090;52.330;9.104;2024-01-15T06:10:16;99104.28;;;2.75;100.00
3132;BME280;62090;52.330;9.104;2024-01-15T06:12:46;99151.03;;;2.98;100.00
3132;BME280;62090;52.330;9.104;2024-01-15T06:15:16;99155.03;;;2.90;100.00
3132;BME280;62090;52.330;9.104;2024-01-15T06:17:46;99147.38;;;2.87;100.00
3132;BME280;62090;52.330;9.104;2024-01-15T06:20:16;99162.75;;;2.96;100.00
3132;BME280;62090;52.330;9.104;2024-01-15T06:22:47;99156.06;;;2.98;100.00
3132;BME280;62090;52.330;9.104;2024-01-15T06:25:19;99153.69;;;3.03;100.00
3132;BME280;62090;52.330;9.104;2024-01-15T06:27:49;99163.63;;;2.98;100.00
3132;BME280;62090;52.330;9.104;2024-01-15T06:30:20;99130.50;;;2.83;100.00
3132;BME280;62090;52.330;9.104;2024-01-15T06:32:50;99126.91;;;2.75;100.00
3132;BME280;62090;52.330;9.104;2024-01-15T06:35:20;99155.91;;;2.92;100.00
3132;BME280;62090;52.330;9.104;2024-01-15T06:37:50;99164.44;;;2.97;100.00
3132;BME280;62090;52.330;9.104;2024-01-15T06:40:23;99163.63;;;2.98;100.00
3132;BME280;62090;52.330;9.104;2024-01-15T06:42:53;99143.91;;;2.83;100.00
3132;BME280;62090;52.330;9.104;2024-01-15T06:45:23;99166.13;;;2.98;100.00
3132;BME280;62090;52.330;9.104;2024-01-15T06:47:53;99092.56;;;2.47;100.00
3132;BME280;62090;52.330;9.104;2024-01-15T06:50:24;99162.63;;;2.93;100.00
3132;BME280;62090;52.330;9.104;2024-01-15T06:52:54;99141.22;;;2.77;100.00
3132;BME280;62090;52.330;9.104;2024-01-15T06:55:26;99150.69;;;2.86;100.00
3132;BME280;62090;52.330;9.104;2024-01-15T06:57:57;99134.47;;;2.75;100.00
3132;BME280;62090;52.330;9.104;2024-01-15T07:00:27;99151.47;;;2.83;100.00
3132;BME280;62090;52.330;9.104;2024-01-15T07:02:57;99130.91;;;2.68;100.00
3132;BME280;62090;52.330;9.104;2024-01-15T07:05:27;99168.09;;;3.08;100.00
3132;BME280;62090;52.330;9.104;2024-01-15T07:07:58;99142.38;;;2.88;100.00
3132;BME280;62090;52.330;9.104;2024-01-15T07:10:31;99117.56;;;2.71;100.00
3132;BME280;62090;52.330;9.104;2024-01-15T07:13:03;99170.38;;;2.99;100.00
3132;BME280;62090;52.330;9.104;2024-01-15T07:15:34;99153.97;;;2.83;100.00
3132;BME280;62090;52.330;9.104;2024-01-15T07:18:05;99096.91;;;2.52;100.00
3132;BME280;62090;52.330;9.104;2024-01-15T07:20:35;99169.28;;;2.91;100.00
3132;BME280;62090;52.330;9.104;2024-01-15T07:23:05;99175.28;;;2.94;100.00
3132;BME280;62090;52.330;9.104;2024-01-15T07:25:38;99176.19;;;2.98;100.00
3132;BME280;62090;52.330;9.104;2024-01-15T07:28:09;99134.09;;;2.63;100.00
3132;BME280;62090;52.330;9.104;2024-01-15T07:30:39;99177.72;;;2.93;100.00
3132;BME280;62090;52.330;9.104;2024-01-15T07:33:10;99186.09;;;2.92;100.00
3132;BME280;62090;52.330;9.104;2024-01-15T07:35:40;99186.00;;;2.89;100.00
3132;BME280;62090;52.330;9.104;2024-01-15T07:38:10;99192.75;;;2.90;100.00
3132;BME280;62090;52.330;9.104;2024-01-15T07:40:43;99173.25;;;2.83;100.00
3132;BME280;62090;52.330;9.104;2024-01-15T07:43:16;99159.44;;;2.70;100.00
3132;BME280;62090;52.330;9.104;2024-01-15T07:45:46;99109.97;;;2.41;100.00
3132;BME280;62090;52.330;9.104;2024-01-15T07:48:17;99193.41;;;2.84;100.00
3132;BME280;62090;52.330;9.104;2024-01-15T07:50:47;99200.19;;;2.87;100.00
3132;BME280;62090;52.330;9.104;2024-01-15T07:53:17;99119.16;;;2.40;100.00
3132;BME280;62090;52.330;9.104;2024-01-15T07:55:50;99180.72;;;2.80;100.00
3132;BME280;62090;52.330;9.104;2024-01-15T07:58:20;99189.31;;;2.88;100.00
3132;BME280;62090;52.330;9.104;2024-01-15T08:00:50;99206.06;;;2.87;100.00
3132;BME280;62090;52.330;9.104;2024-01-15T08:03:20;99187.41;;;2.81;100.00
3132;BME280;62090;52.330;9.104;2024-01-15T08:05:51;99200.91;;;2.83;100.00
3132;BME280;62090;52.330;9.104;2024-01-15T08:08:21;99163.16;;;2.54;100.00
3132;BME280;62090;52.330;9.104;2024-01-15T08:10:54;99159.03;;;2.57;100.00
3132;BME280;62090;52.330;9.104;2024-01-15T08:13:26;99207.53;;;2.81;100.00
3132;BME280;62090;52.330;9.104;2024-01-15T08:15:57;99211.03;;;2.86;100.00
3132;BME280;62090;52.330;9.104;2024-01-15T08:18:29;99131.66;;;2.39;100.00
3132;BME280;62090;52.330;9.104;2024-01-15T08:20:59;99185.63;;;2.77;100.00
3132;BME280;62090;52.330;9.104;2024-01-15T08:23:30;99162.69;;;2.66;100.00
3132;BME280;62090;52.330;9.104;2024-01-15T08:26:03;99168.94;;;2.79;100.00
3132;BME280;62090;52.330;9.104;2024-01-15T08:28:33;99200.44;;;2.94;100.00
3132;BME280;62090;52.330;9.104;2024-01-15T08:31:05;99126.28;;;2.53;100.00
3132;BME280;62090;52.330;9.104;2024-01-15T08:33:36;99117.81;;;2.51;100.00
3132;BME280;62090;52.330;9.104;2024-01-15T08:36:07;99196.44;;;3.01;100.00
3132;BME280;62090;52.330;9.104;2024-01-15T08:38:37;99205.00;;;3.08;100.00
3132;BME280;62090;52.330;9.104;2024-01-15T08:41:10;99212.66;;;3.12;100.00
3132;BME280;62090;52.330;9.104;2024-01-15T08:43:41;99189.03;;;3.06;100.00
3132;BME280;62090;52.330;9.104;2024-01-15T08:46:11;99171.28;;;3.01;100.00
3132;BME280;62090;52.330;9.104;2024-01-15T08:48:41;99184.72;;;3.03;100.00
3132;BME280;62090;52.330;9.104;2024-01-15T08:51:11;99201.81;;;3.13;100.00
3132;BME280;62090;52.330;9.104;2024-01-15T08:53:41;99194.97;;;3.09;100.00
3132;BME280;62090;52.330;9.104;2024-01-15T08:56:14;99199.28;;;3.13;100.00
3132;BME280;62090;52.330;9.104;2024-01-15T08:58:44;99200.31;;;3.20;100.00
3132;BME280;62090;52.330;9.104;2024-01-15T09:01:15;99194.69;;;3.28;100.00
3132;BME280;62090;52.330;9.104;2024-01-15T09:03:46;99198.84;;;3.26;100.00
3132;BME280;62090;52.330;9.104;2024-01-15T09:06:16;99204.75;;;3.28;100.00
3132;BME280;62090;52.330;9.104;2024-01-15T09:08:48;99203.06;;;3.27;100.00
3132;BME280;62090;52.330;9.104;2024-01-15T09:11:20;99206.50;;;3.31;100.00
3132;BME280;62090;52.330;9.104;2024-01-15T09:13:50;99178.72;;;2.98;100.00
3132;BME280;62090;52.330;9.104;2024-01-15T09:16:20;99212.22;;;3.25;100.00
3132;BME280;62090;52.330;9.104;2024-01-15T09:18:51;99162.44;;;2.85;100.00
3132;BME280;62090;52.330;9.104;2024-01-15T09:21:24;99225.41;;;3.17;100.00
3132;BME280;62090;52.330;9.104;2024-01-15T09:23:54;99134.31;;;2.43;100.00
3132;BME280;62090;52.330;9.104;2024-01-15T09:26:28;99235.44;;;2.88;100.00
3132;BME280;62090;52.330;9.104;2024-01-15T09:28:58;99145.53;;;2.26;100.00
3132;BME280;62090;52.330;9.104;2024-01-15T09:31:28;99231.69;;;2.76;100.00
3132;BME280;62090;52.330;9.104;2024-01-15T09:33:58;99230.03;;;2.76;100.00
3132;BME280;62090;52.330;9.104;2024-01-15T09:36:29;99238.03;;;2.90;100.00
3132;BME280;62090;52.330;9.104;2024-01-15T09:38:59;99235.50;;;2.90;100.00
3132;BME280;62090;52.330;9.104;2024-01-15T09:41:32;99230.47;;;2.90;100.00
3132;BME280;62090;52.330;9.104;2024-01-15T09:44:03;99219.78;;;2.97;100.00
3132;BME280;62090;52.330;9.104;2024-01-15T09:46:35;99216.22;;;3.19;100.00
3132;BME280;62090;52.330;9.104;2024-01-15T09:49:05;99181.91;;;2.92;100.00
3132;BME280;62090;52.330;9.104;2024-01-15T09:51:36;99217.88;;;3.18;100.00
3132;BME280;62090;52.330;9.104;2024-01-15T09:54:08;99220.38;;;3.17;100.00
3132;BME280;62090;52.330;9.104;2024-01-15T09:56:45;99217.09;;;3.19;100.00
3132;BME280;62090;52.330;9.104;2024-01-15T09:59:16;99229.84;;;3.25;100.00
3132;BME280;62090;52.330;9.104;2024-01-15T10:01:46;99225.53;;;3.21;100.00
3132;BME280;62090;52.330;9.104;2024-01-15T10:04:17;99223.81;;;3.20;100.00
3132;BME280;62090;52.330;9.104;2024-01-15T10:06:48;99197.44;;;3.08;100.00
3132;BME280;62090;52.330;9.104;2024-01-15T10:09:21;99209.41;;;3.15;100.00
3132;BME280;62090;52.330;9.104;2024-01-15T10:11:53;99158.28;;;2.87;100.00
3132;BME280;62090;52.330;9.104;2024-01-15T10:14:24;99218.88;;;3.23;100.00
3132;BME280;62090;52.330;9.104;2024-01-15T10:16:54;99209.84;;;3.30;100.00
3132;BME280;62090;52.330;9.104;2024-01-15T10:19:24;99220.84;;;3.33;100.00
3132;BME280;62090;52.330;9.104;2024-01-15T10:21:55;99184.38;;;3.19;100.00
3132;BME280;62090;52.330;9.104;2024-01-15T10:24:25;99184.47;;;3.22;100.00
3132;BME280;62090;52.330;9.104;2024-01-15T10:27:07;99131.22;;;3.09;100.00
3132;BME280;62090;52.330;9.104;2024-01-15T10:29:38;99204.59;;;3.52;100.00
3132;BME280;62090;52.330;9.104;2024-01-15T10:32:09;99160.34;;;3.30;100.00
3132;BME280;62090;52.330;9.104;2024-01-15T10:34:40;99204.50;;;3.49;100.00
3132;BME280;62090;52.330;9.104;2024-01-15T10:37:11;99205.34;;;3.48;100.00
3132;BME280;62090;52.330;9.104;2024-01-15T10:39:41;99197.72;;;3.47;100.00
3132;BME280;62090;52.330;9.104;2024-01-15T10:42:14;99201.00;;;3.44;100.00
3132;BME280;62090;52.330;9.104;2024-01-15T10:44:45;99216.22;;;3.47;100.00
3132;BME280;62090;52.330;9.104;2024-01-15T10:47:16;99211.16;;;3.47;100.00
3132;BME280;62090;52.330;9.104;2024-01-15T10:49:46;99168.63;;;3.26;100.00
3132;BME280;62090;52.330;9.104;2024-01-15T10:52:17;99210.63;;;3.57;100.00
3132;BME280;62090;52.330;9.104;2024-01-15T10:54:48;99213.06;;;3.56;100.00
3132;BME280;62090;52.330;9.104;2024-01-15T10:57:21;99206.59;;;3.64;100.00
3132;BME280;62090;52.330;9.104;2024-01-15T10:59:53;99141.34;;;3.10;100.00
3132;BME280;62090;52.330;9.104;2024-01-15T11:02:25;99108.09;;;2.92;100.00
3132;BME280;62090;52.330;9.104;2024-01-15T11:04:55;99199.34;;;3.45;100.00
3132;BME280;62090;52.330;9.104;2024-01-15T11:07:26;99192.75;;;3.50;100.00
3132;BME280;62090;52.330;9.104;2024-01-15T11:09:56;99184.34;;;3.48;100.00
3132;BME280;62090;52.330;9.104;2024-01-15T11:12:31;99185.69;;;3.36;100.00
3132;BME280;62090;52.330;9.104;2024-01-15T11:15:02;99202.59;;;3.40;100.00
3132;BME280;62090;52.330;9.104;2024-01-15T11:17:58;99156.84;;;3.25;100.00
3132;BME280;62090;52.330;9.104;2024-01-15T11:20:31;99149.19;;;3.21;100.00
3132;BME280;62090;52.330;9.104;2024-01-15T11:23:01;99190.09;;;3.44;100.00
3132;BME280;62090;52.330;9.104;2024-01-15T11:25:34;99194.66;;;3.57;100.00
3132;BME280;62090;52.330;9.104;2024-01-15T11:28:07;99184.91;;;3.69;100.00
3132;BME280;62090;52.330;9.104;2024-01-15T11:30:37;99189.09;;;3.68;100.00
3132;BME280;62090;52.330;9.104;2024-01-15T11:33:33;99100.63;;;3.25;100.00
3132;BME280;62090;52.330;9.104;2024-01-15T11:36:04;99150.28;;;3.62;100.00
3132;BME280;62090;52.330;9.104;2024-01-15T11:38:35;99157.91;;;3.63;100.00
3132;BME280;62090;52.330;9.104;2024-01-15T11:41:13;99115.44;;;3.46;100.00
3132;BME280;62090;52.330;9.104;2024-01-15T11:43:47;99176.25;;;3.92;100.00
3132;BME280;62090;52.330;9.104;2024-01-15T11:46:18;99167.91;;;3.93;100.00
3132;BME280;62090;52.330;9.104;2024-01-15T11:48:53;99159.25;;;3.83;98.87
3132;BME280;62090;52.330;9.104;2024-01-15T11:51:30;99183.88;;;3.94;100.00
3132;BME280;62090;52.330;9.104;2024-01-15T11:54:03;99176.31;;;3.94;98.23
3132;BME280;62090;52.330;9.104;2024-01-15T11:56:37;99175.97;;;3.80;98.07
3132;BME280;62090;52.330;9.104;2024-01-15T11:59:09;99179.19;;;3.76;97.69
3132;BME280;62090;52.330;9.104;2024-01-15T12:01:40;99140.00;;;3.53;97.78
3132;BME280;62090;52.330;9.104;2024-01-15T12:04:10;99177.53;;;3.75;97.34
3132;BME280;62090;52.330;9.104;2024-01-15T12:06:45;99175.88;;;3.77;97.96
3132;BME280;62090;52.330;9.104;2024-01-15T12:09:15;99127.16;;;3.44;98.61
3132;BME280;62090;52.330;9.104;2024-01-15T12:11:54;99176.53;;;3.70;98.26
3132;BME280;62090;52.330;9.104;2024-01-15T12:14:30;99175.75;;;3.72;98.55
3132;BME280;62090;52.330;9.104;2024-01-15T12:17:01;99163.84;;;3.67;98.58
3132;BME280;62090;52.330;9.104;2024-01-15T12:19:32;99167.28;;;3.70;98.02
3132;BME280;62090;52.330;9.104;2024-01-15T12:22:03;99113.56;;;3.38;97.96
3132;BME280;62090;52.330;9.104;2024-01-15T12:24:33;99093.94;;;3.25;98.92
3132;BME280;62090;52.330;9.104;2024-01-15T12:27:04;99174.22;;;3.77;99.55
3132;BME280;62090;52.330;9.104;2024-01-15T12:29:38;99172.53;;;3.78;98.10
3132;BME280;62090;52.330;9.104;2024-01-15T12:32:08;99171.69;;;3.77;97.58
3132;BME280;62090;52.330;9.104;2024-01-15T12:34:38;99161.34;;;3.67;96.43
3132;BME280;62090;52.330;9.104;2024-01-15T12:37:08;99171.53;;;3.71;96.29
3132;BME280;62090;52.330;9.104;2024-01-15T12:39:39;99156.94;;;3.58;96.87
3132;BME280;62090;52.330;9.104;2024-01-15T12:42:14;99178.16;;;3.68;97.38
3132;BME280;62090;52.330;9.104;2024-01-15T12:44:47;99174.72;;;3.66;97.11
3132;BME280;62090;52.330;9.104;2024-01-15T12:47:17;99057.00;;;2.93;97.34
3132;BME280;62090;52.330;9.104;2024-01-15T12:49:48;99178.06;;;3.65;97.94
3132;BME280;62090;52.330;9.104;2024-01-15T12:52:31;99090.44;;;3.20;98.05
3132;BME280;62090;52.330;9.104;2024-01-15T12:55:02;99122.88;;;3.41;97.18
3132;BME280;62090;52.330;9.104;2024-01-15T12:57:34;99170.66;;;3.69;97.35
3132;BME280;62090;52.330;9.104;2024-01-15T13:00:08;99059.63;;;2.96;97.05
3132;BME280;62090;52.330;9.104;2024-01-15T13:02:41;99164.38;;;3.54;97.28
3132;BME280;62090;52.330;9.104;2024-01-15T13:05:11;99155.91;;;3.52;97.12
3132;BME280;62090;52.330;9.104;2024-01-15T13:07:43;99176.38;;;3.64;96.92
3132;BME280;62090;52.330;9.104;2024-01-15T13:10:13;99184.97;;;3.72;97.64
3132;BME280;62090;52.330;9.104;2024-01-15T13:12:43;99187.44;;;3.70;96.83
3132;BME280;62090;52.330;9.104;2024-01-15T13:15:16;99181.59;;;3.70;96.55
3132;BME280;62090;52.330;9.104;2024-01-15T13:17:46;99173.03;;;3.65;97.28
3132;BME280;62090;52.330;9.104;2024-01-15T13:20:17;99179.81;;;3.67;97.62
3132;BME280;62090;52.330;9.104;2024-01-15T13:22:47;99151.50;;;3.45;98.44
3132;BME280;62090;52.330;9.104;2024-01-15T13:25:17;99138.63;;;3.34;97.91
3132;BME280;62090;52.330;9.104;2024-01-15T13:27:47;99078.91;;;2.97;98.17
3132;BME280;62090;52.330;9.104;2024-01-15T13:30:20;99176.28;;;3.61;98.23
3132;BME280;62090;52.330;9.104;2024-01-15T13:32:50;99141.25;;;3.37;98.68